createdAt,value
2023-03-16T00:02:10.330Z,40.97
2023-03-16T00:04:37.778Z,41.78
2023-03-16T00:07:06.074Z,41.92
2023-03-16T00:09:32.951Z,40.17
2023-03-16T00:12:04.644Z,47.10
2023-03-16T00:14:32.460Z,42.65
2023-03-16T00:16:59.396Z,45.60
2023-03-16T00:19:25.975Z,49.70
2023-03-16T00:21:53.286Z,46.72
2023-03-16T00:24:20.388Z,45.90
2023-03-16T00:26:48.013Z,40.85
2023-03-16T00:29:14.989Z,56.03
2023-03-16T00:31:44.073Z,50.92
2023-03-16T00:34:11.674Z,45.40
2023-03-16T00:36:38.621Z,51.70
2023-03-16T00:39:06.906Z,46.83
2023-03-16T00:41:38.032Z,43.03
2023-03-16T00:44:05.684Z,44.00
2023-03-16T00:46:32.463Z,45.53
2023-03-16T00:48:59.320Z,51.50
2023-03-16T00:51:25.949Z,47.92
2023-03-16T00:53:52.539Z,41.67
2023-03-16T00:56:19.250Z,45.47
2023-03-16T00:58:46.000Z,47.95
2023-03-16T01:01:18.841Z,51.50
2023-03-16T01:03:46.349Z,46.90
2023-03-16T01:06:17.520Z,47.75
2023-03-16T01:08:44.655Z,47.45
2023-03-16T01:11:21.074Z,35.20
2023-03-16T01:14:13.153Z,46.22
2023-03-16T01:16:40.771Z,38.13
2023-03-16T01:19:07.873Z,34.15
2023-03-16T01:21:36.919Z,40.05
2023-03-16T01:24:04.470Z,41.75
2023-03-16T01:26:31.178Z,44.13
2023-03-16T01:28:57.782Z,42.92
2023-03-16T01:31:24.455Z,41.63
2023-03-16T01:33:52.210Z,41.20
2023-03-16T01:36:22.301Z,37.42
2023-03-16T01:38:53.998Z,46.63
2023-03-16T01:41:22.143Z,40.33
2023-03-16T01:43:48.812Z,39.05
2023-03-16T01:46:20.012Z,39.17
2023-03-16T01:49:02.038Z,47.80
2023-03-16T01:51:42.003Z,38.53
2023-03-16T01:54:14.619Z,44.72
2023-03-16T01:57:15.691Z,44.92
2023-03-16T02:00:10.548Z,32.63
2023-03-16T02:02:46.267Z,33.58
2023-03-16T02:05:30.893Z,39.22
2023-03-16T02:07:58.657Z,49.42
2023-03-16T02:10:28.891Z,41.72
2023-03-16T02:12:56.108Z,34.58
2023-03-16T02:15:22.986Z,37.20
2023-03-16T02:17:51.000Z,39.30
2023-03-16T02:20:26.331Z,42.65
2023-03-16T02:22:54.306Z,44.50
2023-03-16T02:25:26.581Z,41.28
2023-03-16T02:28:25.561Z,39.17
2023-03-16T02:30:53.407Z,39.55
2023-03-16T02:33:21.373Z,42.42
2023-03-16T02:35:48.037Z,44.72
2023-03-16T02:38:14.736Z,38.92
2023-03-16T02:40:59.299Z,42.35
2023-03-16T02:43:33.337Z,43.38
2023-03-16T02:46:25.598Z,37.80
2023-03-16T02:49:21.438Z,37.35
2023-03-16T02:51:48.334Z,38.42
2023-03-16T02:54:16.784Z,41.13
2023-03-16T02:56:43.411Z,42.10
2023-03-16T02:59:12.125Z,32.58
2023-03-16T03:01:39.214Z,38.90
2023-03-16T03:04:06.140Z,37.20
2023-03-16T03:06:32.887Z,35.40
2023-03-16T03:09:02.048Z,41.38
2023-03-16T03:11:29.523Z,56.30
2023-03-16T03:13:56.411Z,46.00
2023-03-16T03:16:26.177Z,40.25
2023-03-16T03:18:54.854Z,43.95
2023-03-16T03:21:21.866Z,46.38
2023-03-16T03:23:48.417Z,46.83
2023-03-16T03:26:15.439Z,50.70
2023-03-16T03:28:44.646Z,40.13
2023-03-16T03:31:15.348Z,42.53
2023-03-16T03:33:42.117Z,47.50
2023-03-16T03:36:08.872Z,42.72
2023-03-16T03:38:37.645Z,43.38
2023-03-16T03:41:08.045Z,41.42
2023-03-16T03:43:37.210Z,40.15
2023-03-16T03:46:07.898Z,44.38
2023-03-16T03:48:34.828Z,36.67
2023-03-16T03:51:02.444Z,45.83
2023-03-16T03:53:49.252Z,43.95
2023-03-16T03:56:41.790Z,45.53
2023-03-16T03:59:13.714Z,58.10
2023-03-16T04:02:10.882Z,49.50
2023-03-16T04:04:43.872Z,48.35
2023-03-16T04:07:12.994Z,44.50
2023-03-16T04:09:41.829Z,57.17
2023-03-16T04:12:15.341Z,40.85
2023-03-16T04:14:43.569Z,53.85
2023-03-16T04:17:10.445Z,45.88
2023-03-16T04:19:39.263Z,50.13
2023-03-16T04:22:10.892Z,45.38
2023-03-16T04:24:37.598Z,46.60
2023-03-16T04:27:04.351Z,47.30
2023-03-16T04:29:31.954Z,58.53
2023-03-16T04:31:59.023Z,52.92
2023-03-16T04:34:27.582Z,47.78
2023-03-16T04:36:58.104Z,54.20
2023-03-16T04:39:25.148Z,53.65
2023-03-16T04:41:53.661Z,48.47
2023-03-16T04:44:22.789Z,51.50
2023-03-16T04:46:50.299Z,50.90
2023-03-16T04:49:17.854Z,63.90
2023-03-16T04:51:45.606Z,54.35
2023-03-16T04:54:15.479Z,58.40
2023-03-16T04:56:43.846Z,57.88
2023-03-16T04:59:39.825Z,52.85
2023-03-16T05:02:19.431Z,47.90
2023-03-16T05:04:46.211Z,48.72
2023-03-16T05:07:12.742Z,44.33
2023-03-16T05:09:42.847Z,45.50
2023-03-16T05:12:11.351Z,75.15
2023-03-16T05:14:39.343Z,54.58
2023-03-16T05:17:27.026Z,60.00
2023-03-16T05:19:53.637Z,58.17
2023-03-16T05:22:21.195Z,55.97
2023-03-16T05:25:15.735Z,52.63
2023-03-16T05:27:51.854Z,49.95
2023-03-16T05:30:26.822Z,50.47
2023-03-16T05:32:57.833Z,44.58
2023-03-16T05:35:25.357Z,52.30
2023-03-16T05:37:53.927Z,60.28
2023-03-16T05:40:23.093Z,47.00
2023-03-16T05:43:05.246Z,46.13
2023-03-16T05:45:36.738Z,49.42
2023-03-16T05:50:43.449Z,52.15
2023-03-16T05:53:11.542Z,52.95
2023-03-16T05:55:39.576Z,53.72
2023-03-16T05:58:09.730Z,50.80
2023-03-16T06:00:39.452Z,48.58
2023-03-16T06:03:17.911Z,61.40
2023-03-16T06:05:44.676Z,51.42
2023-03-16T06:08:11.571Z,67.40
2023-03-16T06:10:41.759Z,60.72
2023-03-16T06:13:08.351Z,58.40
2023-03-16T06:15:35.203Z,60.92
2023-03-16T06:18:03.492Z,59.20
2023-03-16T06:20:30.461Z,61.97
2023-03-16T06:22:57.674Z,52.65
2023-03-16T06:25:24.308Z,43.15
2023-03-16T06:27:51.844Z,50.60
2023-03-16T06:30:19.472Z,67.10
2023-03-16T06:32:46.157Z,50.00
2023-03-16T06:35:13.956Z,59.78
2023-03-16T06:37:59.760Z,53.50
2023-03-16T06:40:38.902Z,63.90
2023-03-16T06:43:06.361Z,53.95
2023-03-16T06:45:32.971Z,63.38
2023-03-16T06:48:00.953Z,56.97
2023-03-16T06:50:30.062Z,55.60
2023-03-16T06:52:56.909Z,61.03
2023-03-16T06:55:23.608Z,49.72
2023-03-16T06:57:50.292Z,54.35
2023-03-16T07:00:18.912Z,50.38
2023-03-16T07:02:45.679Z,55.80
2023-03-16T07:05:13.818Z,47.60
2023-03-16T07:07:42.697Z,49.88
2023-03-16T07:10:14.972Z,46.60
2023-03-16T07:12:42.315Z,49.45
2023-03-16T07:15:13.305Z,47.88
2023-03-16T07:17:40.896Z,48.25
2023-03-16T07:20:10.583Z,39.85
2023-03-16T07:22:39.530Z,42.15
2023-03-16T07:25:11.251Z,42.15
2023-03-16T07:27:43.889Z,44.60
2023-03-16T07:30:14.199Z,44.95
2023-03-16T07:32:42.862Z,51.50
2023-03-16T07:35:11.602Z,45.80
2023-03-16T07:37:39.556Z,46.15
2023-03-16T07:40:10.231Z,42.47
2023-03-16T07:42:40.080Z,47.97
2023-03-16T07:45:14.522Z,55.42
2023-03-16T07:47:43.292Z,43.80
2023-03-16T07:50:19.470Z,42.13
2023-03-16T07:52:49.451Z,46.97
2023-03-16T07:55:16.725Z,40.17
2023-03-16T07:57:47.941Z,38.65
2023-03-16T08:00:23.749Z,36.22
2023-03-16T08:02:51.829Z,35.95
2023-03-16T08:05:18.426Z,31.88
2023-03-16T08:07:49.866Z,26.77
2023-03-16T08:10:21.030Z,33.78
2023-03-16T08:13:10.814Z,39.92
2023-03-16T08:15:42.320Z,36.25
2023-03-16T08:18:17.108Z,35.17
2023-03-16T08:20:44.664Z,47.95
2023-03-16T08:23:13.144Z,35.15
2023-03-16T08:25:41.624Z,37.05
2023-03-16T08:28:15.845Z,52.80
2023-03-16T08:30:51.131Z,34.83
2023-03-16T08:33:29.069Z,34.03
2023-03-16T08:35:56.078Z,25.27
2023-03-16T08:38:22.952Z,32.63
2023-03-16T08:40:52.608Z,32.92
2023-03-16T08:43:21.773Z,28.77
2023-03-16T08:45:49.234Z,23.45
2023-03-16T08:48:18.281Z,33.03
2023-03-16T08:50:51.890Z,30.50
2023-03-16T08:53:18.962Z,32.08
2023-03-16T08:55:46.210Z,29.83
2023-03-16T08:58:14.213Z,25.52
2023-03-16T09:00:41.189Z,23.88
2023-03-16T09:03:07.866Z,22.05
2023-03-16T09:05:34.539Z,20.63
2023-03-16T09:08:01.595Z,23.85
2023-03-16T09:10:28.902Z,22.60
2023-03-16T09:12:55.714Z,22.83
2023-03-16T09:15:22.704Z,28.30
2023-03-16T09:17:50.344Z,21.45
2023-03-16T09:20:22.803Z,25.00
2023-03-16T09:22:54.572Z,18.55
2023-03-16T09:25:24.172Z,15.27
2023-03-16T09:27:51.607Z,22.23
2023-03-16T09:30:18.962Z,12.32
2023-03-16T09:32:53.111Z,11.85
2023-03-16T09:35:20.203Z,15.98
2023-03-16T09:38:04.729Z,18.33
2023-03-16T09:40:33.493Z,15.02
2023-03-16T09:43:09.159Z,15.85
2023-03-16T09:45:45.726Z,19.30
2023-03-16T09:48:14.342Z,16.55
2023-03-16T09:50:48.833Z,18.25
2023-03-16T09:53:29.858Z,20.83
2023-03-16T09:56:22.462Z,12.05
2023-03-16T10:01:43.126Z,11.35
2023-03-16T10:04:32.357Z,19.48
2023-03-16T10:07:30.868Z,14.88
2023-03-16T10:10:20.081Z,19.75
2023-03-16T10:12:52.558Z,18.98
2023-03-16T10:17:56.929Z,17.00
2023-03-16T10:20:34.541Z,12.75
2023-03-16T10:23:14.661Z,17.63
2023-03-16T10:25:50.309Z,18.25
2023-03-16T10:28:23.472Z,22.20
2023-03-16T10:30:53.184Z,19.33
2023-03-16T10:33:26.919Z,37.67
2023-03-16T10:36:12.711Z,21.15
2023-03-16T10:38:49.212Z,15.93
2023-03-16T10:41:19.018Z,13.98
2023-03-16T10:43:47.905Z,10.70
2023-03-16T10:46:15.301Z,14.68
2023-03-16T10:48:42.551Z,15.20
2023-03-16T10:51:15.117Z,25.00
2023-03-16T10:53:44.638Z,21.50
2023-03-16T10:56:19.915Z,31.38
2023-03-16T10:58:46.877Z,61.40
2023-03-16T11:01:23.681Z,22.75
2023-03-16T11:03:53.259Z,23.80
2023-03-16T11:06:24.698Z,25.55
2023-03-16T11:08:54.947Z,27.83
2023-03-16T11:11:27.450Z,22.83
2023-03-16T11:13:57.743Z,23.20
2023-03-16T11:16:39.736Z,24.42
2023-03-16T11:19:15.020Z,20.20
2023-03-16T11:21:59.775Z,18.33
2023-03-16T11:24:53.095Z,14.70
2023-03-16T11:27:35.151Z,19.42
2023-03-16T11:30:09.787Z,17.42
2023-03-16T11:32:40.193Z,19.40
2023-03-16T11:35:29.213Z,25.88
2023-03-16T11:38:11.073Z,16.38
2023-03-16T11:40:43.852Z,15.87
2023-03-16T11:43:35.182Z,21.83
2023-03-16T11:46:22.799Z,21.40
2023-03-16T11:49:15.515Z,18.73
2023-03-16T11:52:08.328Z,12.13
2023-03-16T11:54:58.830Z,16.55
2023-03-16T11:57:44.385Z,14.55
2023-03-16T12:00:20.490Z,20.65
2023-03-16T12:03:10.155Z,15.48
2023-03-16T12:05:57.194Z,15.30
2023-03-16T12:08:44.970Z,16.08
2023-03-16T12:11:22.352Z,15.68
2023-03-16T12:14:15.725Z,12.35
2023-03-16T12:16:53.650Z,14.10
2023-03-16T12:19:32.428Z,17.08
2023-03-16T12:22:19.895Z,14.00
2023-03-16T12:24:52.707Z,11.13
2023-03-16T12:27:24.960Z,15.05
2023-03-16T12:30:25.900Z,15.70
2023-03-16T12:33:16.715Z,19.52
2023-03-16T12:35:51.942Z,9.15
2023-03-16T12:38:37.359Z,10.98
2023-03-16T12:41:19.844Z,10.25
2023-03-16T12:46:30.631Z,10.65
2023-03-16T12:49:01.162Z,8.63
2023-03-16T12:52:00.143Z,11.50
2023-03-16T12:54:27.509Z,12.05
2023-03-16T12:57:05.883Z,7.97
2023-03-16T12:59:42.863Z,11.48
2023-03-16T13:02:19.692Z,5.82
2023-03-16T13:04:54.515Z,11.07
2023-03-16T13:07:24.523Z,5.57
2023-03-16T13:10:17.402Z,10.10
2023-03-16T13:12:45.222Z,10.73
2023-03-16T13:15:19.992Z,9.90
2023-03-16T13:18:03.639Z,7.25
2023-03-16T13:20:54.396Z,7.53
2023-03-16T13:23:25.678Z,9.82
2023-03-16T13:26:07.585Z,10.32
2023-03-16T13:28:37.687Z,9.27
2023-03-16T13:31:19.067Z,10.30
2023-03-16T13:33:48.174Z,10.00
2023-03-16T13:36:15.666Z,6.55
2023-03-16T13:38:42.307Z,7.90
2023-03-16T13:41:14.351Z,8.73
2023-03-16T13:43:44.147Z,10.73
2023-03-16T13:46:22.432Z,8.75
2023-03-16T13:48:49.830Z,9.40
2023-03-16T13:51:20.705Z,12.68
2023-03-16T13:53:49.405Z,10.32
2023-03-16T13:56:28.374Z,6.85
2023-03-16T13:58:57.795Z,16.55
2023-03-16T14:01:30.905Z,11.60
2023-03-16T14:04:08.558Z,8.00
2023-03-16T14:06:35.933Z,6.03
2023-03-16T14:09:06.530Z,7.53
2023-03-16T14:11:33.253Z,13.23
2023-03-16T14:14:00.720Z,10.32
2023-03-16T14:16:29.776Z,6.68
2023-03-16T14:19:06.587Z,7.90
2023-03-16T14:21:34.649Z,8.35
2023-03-16T14:24:07.743Z,7.68
2023-03-16T14:26:42.773Z,10.05
2023-03-16T14:29:30.559Z,9.60
2023-03-16T14:31:58.904Z,10.00
2023-03-16T14:34:36.628Z,8.70
2023-03-16T14:37:15.781Z,6.30
2023-03-16T14:39:42.826Z,8.30
2023-03-16T14:42:28.868Z,7.03
2023-03-16T14:44:58.721Z,7.45
2023-03-16T14:47:33.510Z,9.85
2023-03-16T14:50:17.027Z,5.72
2023-03-16T14:52:45.694Z,8.73
2023-03-16T14:55:19.238Z,13.05
2023-03-16T14:57:46.465Z,8.25
2023-03-16T15:00:16.567Z,9.93
2023-03-16T15:02:51.565Z,6.70
2023-03-16T15:05:27.406Z,7.57
2023-03-16T15:07:57.150Z,12.13
2023-03-16T15:10:35.237Z,7.20
2023-03-16T15:13:12.843Z,9.88
2023-03-16T15:15:43.887Z,12.52
2023-03-16T15:18:10.825Z,13.60
2023-03-16T15:20:44.834Z,9.50
2023-03-16T15:23:16.474Z,13.40
2023-03-16T15:25:45.728Z,10.98
2023-03-16T15:28:14.573Z,15.18
2023-03-16T15:30:42.424Z,8.23
2023-03-16T15:33:12.928Z,9.82
2023-03-16T15:35:40.979Z,9.23
2023-03-16T15:38:14.755Z,9.70
2023-03-16T15:40:45.697Z,25.95
2023-03-16T15:43:13.743Z,16.60
2023-03-16T15:45:40.570Z,110.40
2023-03-16T15:48:09.121Z,17.38
2023-03-16T15:50:38.974Z,88.78
2023-03-16T15:53:29.179Z,16.13
2023-03-16T15:56:04.809Z,102.85
2023-03-16T15:58:33.532Z,13.30
2023-03-16T16:01:01.737Z,120.22
2023-03-16T16:03:28.542Z,47.35
2023-03-16T16:05:55.520Z,16.02
2023-03-16T16:08:22.654Z,63.80
2023-03-16T16:10:50.889Z,16.05
2023-03-16T16:13:23.379Z,13.55
2023-03-16T16:15:52.147Z,70.80
2023-03-16T16:18:26.588Z,75.95
2023-03-16T16:20:53.946Z,80.68
2023-03-16T16:23:20.812Z,61.63
2023-03-16T16:25:49.540Z,41.85
2023-03-16T16:28:19.713Z,147.68
2023-03-16T16:30:50.786Z,259.98
2023-03-16T16:33:25.415Z,57.53
2023-03-16T16:35:54.161Z,62.13
2023-03-16T16:38:21.909Z,141.55
2023-03-16T16:40:49.381Z,380.17
2023-03-16T16:43:32.138Z,148.40
2023-03-16T16:46:04.893Z,304.38
2023-03-16T16:48:33.354Z,354.00
2023-03-16T16:51:01.393Z,204.40
2023-03-16T16:53:28.217Z,137.88
2023-03-16T16:55:56.960Z,99.05
2023-03-16T16:58:24.880Z,45.95
2023-03-16T17:00:55.507Z,42.85
2023-03-16T17:03:28.251Z,33.72
2023-03-16T17:05:58.531Z,16.92
2023-03-16T17:08:27.031Z,27.80
2023-03-16T17:10:54.445Z,18.10
2023-03-16T17:13:29.719Z,22.05
2023-03-16T17:15:56.455Z,22.58
2023-03-16T17:18:23.132Z,26.52
2023-03-16T17:22:22.834Z,89.03
2023-03-16T17:24:49.589Z,111.63
2023-03-16T17:27:25.653Z,114.30
2023-03-16T17:29:55.071Z,66.57
2023-03-16T17:32:22.830Z,88.18
2023-03-16T17:34:50.217Z,94.93
2023-03-16T17:37:19.850Z,95.22
2023-03-16T17:39:49.002Z,99.65
2023-03-16T17:42:18.528Z,205.55
2023-03-16T17:44:50.702Z,159.75
2023-03-16T17:47:29.219Z,78.47
2023-03-16T17:49:58.497Z,38.70
2023-03-16T17:52:26.710Z,45.08
2023-03-16T17:54:54.784Z,71.10
2023-03-16T17:57:34.114Z,113.90
2023-03-16T18:00:02.281Z,101.53
2023-03-16T18:02:41.491Z,146.73
2023-03-16T18:05:20.976Z,184.55
2023-03-16T18:07:48.123Z,155.23
2023-03-16T18:10:24.290Z,386.60
2023-03-16T18:12:57.056Z,104.22
2023-03-16T18:15:29.623Z,35.63
2023-03-16T18:17:56.828Z,31.60
2023-03-16T18:20:34.448Z,81.25
2023-03-16T18:23:03.489Z,128.75
2023-03-16T18:25:36.236Z,90.65
2023-03-16T18:28:02.982Z,73.75
2023-03-16T18:30:30.938Z,165.73
2023-03-16T18:33:03.461Z,202.27
2023-03-16T18:35:30.985Z,216.20
2023-03-16T18:37:58.015Z,123.97
2023-03-16T18:40:25.934Z,109.25
2023-03-16T18:42:54.326Z,95.38
2023-03-16T18:45:23.655Z,109.50
2023-03-16T18:47:58.009Z,46.42
2023-03-16T18:50:30.432Z,54.42
2023-03-16T18:52:58.279Z,42.20
2023-03-16T18:55:25.658Z,43.13
2023-03-16T18:57:56.624Z,83.93
2023-03-16T19:00:29.798Z,83.63
2023-03-16T19:03:01.836Z,84.72
2023-03-16T19:05:35.920Z,64.72
2023-03-16T19:08:05.023Z,250.10
2023-03-16T19:10:37.130Z,312.13
2023-03-16T19:13:09.759Z,323.60
2023-03-16T19:15:39.482Z,199.10
2023-03-16T19:18:06.318Z,238.88
2023-03-16T19:20:34.887Z,217.65
2023-03-16T19:23:06.474Z,126.78
2023-03-16T19:25:38.861Z,117.70
2023-03-16T19:30:36.893Z,390.45
2023-03-16T19:33:16.316Z,285.30
2023-03-16T19:35:51.559Z,198.35
2023-03-16T19:38:20.466Z,109.55
2023-03-16T19:40:52.056Z,85.53
2023-03-16T19:43:25.248Z,46.60
2023-03-16T19:45:52.663Z,108.57
2023-03-16T19:48:25.063Z,124.10
2023-03-16T19:50:52.099Z,125.50
2023-03-16T19:53:25.592Z,58.05
2023-03-16T19:55:53.605Z,47.17
2023-03-16T19:58:39.315Z,93.30
2023-03-16T20:01:13.023Z,81.60
2023-03-16T20:03:39.828Z,138.60
2023-03-16T20:06:09.649Z,123.75
2023-03-16T20:08:39.100Z,47.47
2023-03-16T20:11:14.081Z,33.88
2023-03-16T20:13:40.868Z,32.97
2023-03-16T20:16:08.337Z,43.85
2023-03-16T20:18:35.397Z,38.67
2023-03-16T20:21:02.161Z,52.05
2023-03-16T20:23:30.582Z,56.40
2023-03-16T20:26:02.078Z,89.55
2023-03-16T20:28:39.488Z,126.60
2023-03-16T20:31:09.147Z,97.20
2023-03-16T20:33:36.166Z,123.18
2023-03-16T20:36:03.052Z,164.38
2023-03-16T20:38:29.835Z,104.90
2023-03-16T20:40:56.703Z,206.80
2023-03-16T20:43:30.179Z,221.30
2023-03-16T20:46:02.284Z,148.75
2023-03-16T20:48:29.269Z,128.77
2023-03-16T20:50:59.921Z,113.82
2023-03-16T20:53:30.212Z,96.93
2023-03-16T20:55:56.996Z,98.35
2023-03-16T20:58:26.579Z,85.80
2023-03-16T21:00:57.918Z,72.35
2023-03-16T21:03:29.360Z,85.93
2023-03-16T21:05:59.796Z,45.97
2023-03-16T21:08:27.153Z,48.65
2023-03-16T21:10:57.125Z,58.40
2023-03-16T21:13:32.561Z,53.92
2023-03-16T21:16:02.276Z,92.53
2023-03-16T21:18:30.309Z,110.20
2023-03-16T21:20:58.877Z,111.18
2023-03-16T21:23:25.773Z,122.75
2023-03-16T21:26:01.386Z,115.00
2023-03-16T21:28:31.648Z,86.97
2023-03-16T21:30:59.158Z,109.22
2023-03-16T21:33:31.970Z,96.50
2023-03-16T21:36:00.808Z,96.22
2023-03-16T21:38:29.401Z,120.00
2023-03-16T21:40:56.479Z,130.05
2023-03-16T21:43:23.280Z,146.13
2023-03-16T21:45:51.919Z,132.23
2023-03-16T21:48:30.001Z,108.60
2023-03-16T21:50:59.572Z,43.83
2023-03-16T21:53:29.083Z,47.70
2023-03-16T21:55:56.499Z,32.83
2023-03-16T21:58:24.247Z,58.95
2023-03-16T22:00:52.690Z,45.03
2023-03-16T22:03:24.348Z,42.63
2023-03-16T22:05:52.260Z,40.45
2023-03-16T22:08:22.251Z,50.72
2023-03-16T22:10:49.638Z,43.45
2023-03-16T22:13:18.927Z,56.45
2023-03-16T22:15:48.424Z,62.15
2023-03-16T22:18:37.107Z,48.92
2023-03-16T22:21:19.963Z,55.10
2023-03-16T22:23:48.538Z,58.58
2023-03-16T22:26:22.450Z,64.28
2023-03-16T22:28:56.042Z,59.40
2023-03-16T22:31:32.909Z,54.95
2023-03-16T22:34:00.720Z,67.15
2023-03-16T22:36:28.175Z,85.43
2023-03-16T22:39:12.229Z,85.20
2023-03-16T22:41:39.585Z,60.65
2023-03-16T22:44:11.400Z,31.73
2023-03-16T22:46:38.087Z,55.08
2023-03-16T22:49:12.589Z,55.50
2023-03-16T22:51:39.394Z,52.65
2023-03-16T22:54:11.171Z,70.15
2023-03-16T22:56:39.191Z,78.65
2023-03-16T22:59:11.367Z,67.50
2023-03-16T23:04:23.512Z,55.15
2023-03-16T23:06:53.008Z,63.45
2023-03-16T23:09:21.698Z,50.88
2023-03-16T23:11:53.929Z,56.97
2023-03-16T23:14:27.367Z,57.28
2023-03-16T23:16:54.592Z,64.70
2023-03-16T23:19:33.893Z,67.13
2023-03-16T23:22:05.830Z,49.65
2023-03-16T23:24:33.722Z,57.20
2023-03-16T23:27:01.168Z,54.88
2023-03-16T23:29:28.507Z,60.92
2023-03-16T23:31:55.133Z,84.25
2023-03-16T23:34:24.393Z,80.70
2023-03-16T23:36:51.715Z,79.10
2023-03-16T23:39:19.009Z,113.72
2023-03-16T23:41:48.591Z,110.30
2023-03-16T23:44:19.254Z,88.90
2023-03-16T23:46:45.839Z,83.38
2023-03-16T23:49:19.070Z,64.28
2023-03-16T23:51:46.400Z,47.50
2023-03-16T23:54:23.198Z,47.63
2023-03-16T23:56:50.614Z,52.25
2023-03-16T23:59:17.774Z,50.10
